Time;durP1;ratioP1;P1;durP2;ratioP2;P2;SDS_P1;SDS_P2;PMS_P1;PMS_P2;Temp;Humidity;BMP_temperature;BMP_pressure;BME280_temperature;BME280_humidity;BME280_pressure;Samples;Min_cycle;Max_cycle;Signal;HPM_P1;HPM_P2
2021/01/14 00:02:05;;;;;;;2.85;2.65;;;5.00;99.90;;;;;;4910530;29;20028;-75
2021/01/14 00:04:32;;;;;;;3.20;2.22;;;5.00;99.90;;;;;;4914619;29;20020;-76
2021/01/14 00:06:58;;;;;;;3.38;3.08;;;4.90;99.90;;;;;;4894277;29;20029;-74
2021/01/14 00:09:24;;;;;;;3.08;2.88;;;4.90;99.90;;;;;;4914604;29;20076;-74
2021/01/14 00:11:50;;;;;;;2.72;1.90;;;4.80;99.90;;;;;;4911247;29;20127;-73
2021/01/14 00:14:16;;;;;;;2.83;2.63;;;4.80;99.90;;;;;;4882856;29;20061;-74
2021/01/14 00:16:41;;;;;;;4.82;2.80;;;4.90;99.90;;;;;;4892855;29;20323;-74
2021/01/14 00:19:07;;;;;;;3.45;2.65;;;4.80;99.90;;;;;;4899782;29;20454;-70
2021/01/14 00:21:42;;;;;;;3.10;2.90;;;4.80;99.90;;;;;;4917095;29;20028;-71
2021/01/14 00:24:08;;;;;;;3.00;2.78;;;4.80;99.90;;;;;;4905351;29;20028;-72
2021/01/14 00:26:33;;;;;;;3.33;3.05;;;4.80;99.90;;;;;;4883336;29;20044;-71
2021/01/14 00:28:59;;;;;;;4.05;3.17;;;4.70;99.90;;;;;;4904407;29;20063;-71
2021/01/14 00:31:25;;;;;;;3.25;2.95;;;4.70;99.90;;;;;;4911681;29;20033;-70
2021/01/14 00:33:50;;;;;;;3.00;2.80;;;4.70;99.90;;;;;;4904656;29;20032;-72
2021/01/14 00:36:30;;;;;;;3.42;2.83;;;4.70;99.90;;;;;;4888783;29;20032;-70
2021/01/14 00:38:59;;;;;;;3.00;2.80;;;4.70;99.90;;;;;;4899731;29;20027;-71
2021/01/14 00:41:25;;;;;;;2.80;2.60;;;4.70;99.90;;;;;;4903732;29;20032;-71
2021/01/14 00:43:51;;;;;;;2.50;2.30;;;4.70;99.90;;;;;;4900680;29;20088;-71
2021/01/14 00:46:18;;;;;;;2.88;2.67;;;4.70;99.90;;;;;;4924747;29;20032;-71
2021/01/14 00:48:44;;;;;;;2.65;2.45;;;4.60;99.90;;;;;;4924657;29;20025;-71
2021/01/14 00:51:10;;;;;;;2.30;2.10;;;4.60;99.90;;;;;;4919519;29;20043;-70
2021/01/14 00:53:37;;;;;;;2.80;2.10;;;4.60;99.90;;;;;;4896759;29;20100;-71
2021/01/14 00:56:04;;;;;;;2.40;2.20;;;4.60;99.90;;;;;;4909546;29;20025;-70
2021/01/14 00:58:29;;;;;;;2.47;2.28;;;4.50;99.90;;;;;;4902713;29;20032;-70
2021/01/14 01:00:55;;;;;;;2.50;2.30;;;4.60;99.90;;;;;;4894037;29;20061;-70
2021/01/14 01:03:20;;;;;;;2.47;2.28;;;4.60;99.90;;;;;;4895690;29;20025;-71
2021/01/14 01:05:46;;;;;;;3.47;2.78;;;4.60;99.90;;;;;;4899703;29;20068;-71
2021/01/14 01:08:11;;;;;;;3.38;1.95;;;4.60;99.90;;;;;;4905772;29;20156;-70
2021/01/14 01:10:37;;;;;;;3.10;2.55;;;4.60;99.90;;;;;;4896881;29;20039;-71
2021/01/14 01:13:03;;;;;;;4.10;2.53;;;4.60;99.90;;;;;;4896479;29;20068;-71
2021/01/14 01:15:29;;;;;;;2.58;2.25;;;4.50;99.50;;;;;;4890669;29;20036;-71
2021/01/14 01:17:55;;;;;;;2.17;1.98;;;4.60;98.20;;;;;;4899236;29;20024;-71
2021/01/14 01:20:20;;;;;;;2.90;2.70;;;4.50;94.90;;;;;;4895335;29;20085;-71
2021/01/14 01:22:46;;;;;;;2.22;2.03;;;4.50;94.50;;;;;;4888643;29;20406;-71
2021/01/14 01:25:12;;;;;;;4.25;2.67;;;4.50;99.90;;;;;;4898200;29;20116;-70
2021/01/14 01:27:37;;;;;;;2.47;2.28;;;4.50;99.90;;;;;;4905624;29;20122;-71
2021/01/14 01:30:06;;;;;;;2.95;2.38;;;4.50;99.90;;;;;;4898469;29;20615;-70
2021/01/14 01:32:32;;;;;;;2.63;2.42;;;4.40;99.90;;;;;;4900400;29;20032;-72
2021/01/14 01:34:57;;;;;;;2.58;2.38;;;4.40;99.90;;;;;;4891527;29;20048;-71
2021/01/14 01:37:23;;;;;;;2.90;2.60;;;4.40;99.90;;;;;;4896173;29;20088;-70
2021/01/14 01:39:48;;;;;;;5.35;3.30;;;4.40;99.90;;;;;;4911270;29;20532;-70
2021/01/14 01:42:14;;;;;;;2.78;2.50;;;4.40;99.90;;;;;;4896653;29;20071;-71
2021/01/14 01:44:40;;;;;;;3.25;2.72;;;4.40;99.90;;;;;;4905135;29;20058;-71
2021/01/14 01:47:06;;;;;;;3.42;3.13;;;4.40;99.90;;;;;;4892365;29;20497;-71
2021/01/14 01:49:34;;;;;;;3.38;3.08;;;4.40;99.90;;;;;;4904756;29;20120;-71
2021/01/14 01:52:02;;;;;;;3.38;3.08;;;4.40;99.90;;;;;;4910163;29;20071;-71
2021/01/14 01:54:27;;;;;;;3.78;3.30;;;4.40;99.90;;;;;;4920221;29;20032;-70
2021/01/14 01:56:54;;;;;;;3.72;3.33;;;4.40;99.90;;;;;;4903591;29;20031;-71
2021/01/14 01:59:21;;;;;;;3.75;3.00;;;4.40;99.90;;;;;;4894436;29;20029;-70
2021/01/14 02:01:46;;;;;;;3.10;2.88;;;4.40;99.90;;;;;;4891040;29;20031;-70
2021/01/14 02:04:12;;;;;;;3.30;3.00;;;4.40;99.90;;;;;;4883719;29;20029;-71
2021/01/14 02:06:46;;;;;;;3.55;3.25;;;4.30;99.90;;;;;;4899676;29;20102;-70
2021/01/14 02:09:13;;;;;;;4.25;3.13;;;4.30;99.90;;;;;;4907911;29;20032;-72
2021/01/14 02:11:45;;;;;;;3.85;2.80;;;4.30;99.90;;;;;;4904871;29;20084;-70
2021/01/14 02:14:24;;;;;;;2.85;2.65;;;4.30;99.90;;;;;;4885487;29;20038;-70
2021/01/14 02:16:51;;;;;;;2.78;2.10;;;4.30;99.90;;;;;;4898738;29;20020;-70
2021/01/14 02:19:30;;;;;;;2.90;2.10;;;4.20;99.90;;;;;;4902174;29;20081;-71
2021/01/14 02:22:03;;;;;;;3.60;2.35;;;4.10;99.90;;;;;;4892416;29;20032;-72
2021/01/14 02:24:39;;;;;;;2.97;2.65;;;4.20;99.90;;;;;;4909357;29;20040;-71
2021/01/14 02:27:08;;;;;;;2.33;1.77;;;4.10;99.90;;;;;;4902457;29;20104;-72
2021/01/14 02:29:36;;;;;;;3.58;1.70;;;4.00;99.90;;;;;;4887440;29;20039;-72
2021/01/14 02:32:02;;;;;;;1.88;1.77;;;4.00;99.90;;;;;;4901127;29;20099;-71
2021/01/14 02:34:27;;;;;;;2.55;2.00;;;4.00;99.90;;;;;;4899285;29;20038;-71
2021/01/14 02:36:53;;;;;;;3.88;2.25;;;3.90;99.90;;;;;;4898219;29;20413;-71
2021/01/14 02:39:18;;;;;;;2.58;2.38;;;4.00;99.90;;;;;;4909862;29;20028;-71
2021/01/14 02:41:44;;;;;;;2.22;2.03;;;3.90;99.90;;;;;;4887860;29;20020;-71
2021/01/14 02:44:09;;;;;;;2.42;1.80;;;3.90;99.90;;;;;;4894097;29;20037;-71
2021/01/14 02:46:36;;;;;;;2.38;2.28;;;3.90;99.90;;;;;;4905575;29;20043;-71
2021/01/14 02:49:11;;;;;;;3.15;2.50;;;3.90;99.90;;;;;;4895887;29;20043;-71
2021/01/14 02:51:54;;;;;;;2.53;2.33;;;3.90;99.90;;;;;;4907485;29;20497;-71
2021/01/14 02:54:20;;;;;;;2.10;2.00;;;3.90;99.90;;;;;;4900580;29;20481;-71
2021/01/14 02:56:49;;;;;;;2.63;2.17;;;3.90;99.90;;;;;;4908551;29;20031;-71
2021/01/14 02:59:15;;;;;;;4.30;2.55;;;3.90;99.90;;;;;;4898248;29;20031;-71
2021/01/14 03:01:41;;;;;;;2.50;2.30;;;3.90;99.90;;;;;;4910573;29;20397;-70
2021/01/14 03:04:08;;;;;;;2.58;2.35;;;3.90;99.90;;;;;;4891134;29;20044;-70
2021/01/14 03:06:34;;;;;;;4.65;2.30;;;3.80;99.90;;;;;;4896783;29;20381;-70
2021/01/14 03:08:59;;;;;;;3.60;2.25;;;3.80;99.90;;;;;;4901450;29;20036;-70
2021/01/14 03:11:29;;;;;;;2.88;2.08;;;3.80;99.90;;;;;;4889062;29;20024;-70
2021/01/14 03:13:55;;;;;;;4.00;2.33;;;3.80;99.90;;;;;;4899316;29;20115;-70
2021/01/14 03:16:21;;;;;;;2.67;2.38;;;3.70;99.90;;;;;;4897825;29;20488;-72
2021/01/14 03:18:51;;;;;;;3.22;2.47;;;3.70;99.90;;;;;;4906104;29;20035;-70
2021/01/14 03:21:24;;;;;;;3.42;3.13;;;3.70;99.90;;;;;;4906820;29;20028;-70
2021/01/14 03:23:50;;;;;;;3.45;3.00;;;3.70;99.90;;;;;;4898013;29;20161;-71
2021/01/14 03:26:18;;;;;;;3.88;2.50;;;3.70;99.90;;;;;;4900099;29;20136;-71
2021/01/14 03:28:46;;;;;;;2.88;2.50;;;3.70;99.90;;;;;;4907034;29;20025;-70
2021/01/14 03:31:13;;;;;;;3.53;2.75;;;3.70;99.90;;;;;;4880786;29;20040;-70
2021/01/14 03:33:39;;;;;;;2.67;2.35;;;3.60;99.90;;;;;;4885203;29;20024;-70
2021/01/14 03:36:06;;;;;;;3.35;2.08;;;3.60;99.90;;;;;;4902698;29;20029;-70
2021/01/14 03:38:34;;;;;;;3.35;2.42;;;3.60;99.90;;;;;;4891979;29;20729;-71
2021/01/14 03:40:59;;;;;;;4.82;2.35;;;3.60;99.90;;;;;;4904394;29;20024;-71
2021/01/14 03:43:25;;;;;;;3.08;2.30;;;3.50;99.90;;;;;;4890672;29;20036;-71
2021/01/14 03:45:50;;;;;;;2.17;1.98;;;3.50;99.90;;;;;;4900393;29;20485;-71
2021/01/14 03:48:16;;;;;;;5.85;2.90;;;3.40;99.90;;;;;;4892585;29;20025;-71
2021/01/14 03:50:42;;;;;;;3.63;2.67;;;3.40;99.90;;;;;;4908764;29;20028;-71
2021/01/14 03:53:07;;;;;;;3.22;2.63;;;3.30;99.90;;;;;;4920263;29;20038;-71
2021/01/14 03:55:33;;;;;;;3.65;2.83;;;3.30;99.90;;;;;;4916517;29;20025;-71
2021/01/14 03:57:59;;;;;;;2.78;2.58;;;3.30;99.90;;;;;;4908191;29;20485;-71
2021/01/14 04:00:24;;;;;;;4.25;3.85;;;3.30;99.90;;;;;;4903740;29;20478;-70
2021/01/14 04:02:50;;;;;;;3.65;2.20;;;3.20;99.90;;;;;;4914636;29;20028;-70
2021/01/14 04:05:15;;;;;;;4.45;2.17;;;3.20;99.90;;;;;;4905488;29;20126;-72
2021/01/14 04:07:42;;;;;;;4.43;2.70;;;3.10;99.90;;;;;;4889680;29;20108;-71
2021/01/14 04:10:08;;;;;;;4.78;3.10;;;3.10;99.90;;;;;;4898006;29;20043;-71
2021/01/14 04:12:33;;;;;;;3.15;2.53;;;3.10;99.90;;;;;;4902928;29;20036;-72
2021/01/14 04:14:59;;;;;;;4.65;2.92;;;3.00;99.90;;;;;;4903234;29;20028;-71
2021/01/14 04:17:26;;;;;;;2.80;2.25;;;3.00;99.90;;;;;;4898767;29;20423;-71
2021/01/14 04:19:53;;;;;;;3.03;2.72;;;3.00;99.90;;;;;;4904850;29;20028;-73
2021/01/14 04:22:19;;;;;;;3.45;2.83;;;3.00;99.90;;;;;;4902923;29;20025;-71
2021/01/14 04:24:45;;;;;;;2.97;2.53;;;3.00;99.90;;;;;;4905097;29;20012;-72
2021/01/14 04:27:10;;;;;;;3.25;2.65;;;3.00;99.90;;;;;;4894224;29;20029;-71
2021/01/14 04:29:36;;;;;;;3.72;3.33;;;2.90;99.90;;;;;;4899221;29;20092;-71
2021/01/14 04:32:02;;;;;;;3.15;2.95;;;2.90;99.90;;;;;;4901523;29;20044;-72
2021/01/14 04:34:27;;;;;;;3.83;3.30;;;2.80;99.90;;;;;;4886622;29;20031;-70
2021/01/14 04:37:01;;;;;;;3.47;3.10;;;2.80;99.90;;;;;;4892358;29;20020;-70
2021/01/14 04:39:28;;;;;;;5.72;3.47;;;2.90;99.90;;;;;;4870031;29;20033;-72
2021/01/14 04:41:59;;;;;;;4.32;3.10;;;2.80;99.90;;;;;;4900517;29;20036;-71
2021/01/14 04:44:25;;;;;;;;;;;2.80;99.90;;;;;;4880654;29;20446;-72
2021/01/14 04:47:00;;;;;;;6.30;3.45;;;2.70;99.90;;;;;;4904155;29;19916;-72
2021/01/14 04:49:26;;;;;;;3.80;3.50;;;2.70;99.90;;;;;;4906054;29;20283;-72
2021/01/14 04:51:58;;;;;;;4.93;3.97;;;2.70;99.90;;;;;;4893280;29;20517;-71
2021/01/14 04:54:34;;;;;;;5.15;3.78;;;2.70;99.90;;;;;;4891256;29;20420;-71
2021/01/14 04:57:04;;;;;;;4.53;3.60;;;2.70;99.90;;;;;;4904269;29;20485;-71
2021/01/14 04:59:32;;;;;;;5.40;3.70;;;2.70;99.90;;;;;;4907408;29;20048;-71
2021/01/14 05:01:58;;;;;;;3.67;3.17;;;2.70;99.90;;;;;;4906170;29;20040;-70
2021/01/14 05:04:30;;;;;;;4.47;4.07;;;2.70;99.90;;;;;;4902772;29;20032;-70
2021/01/14 05:06:58;;;;;;;4.22;3.78;;;2.60;99.90;;;;;;4893700;29;20111;-71
2021/01/14 05:09:32;;;;;;;5.00;3.78;;;2.60;99.90;;;;;;4908436;29;20032;-70
2021/01/14 05:11:59;;;;;;;5.85;3.90;;;2.60;99.90;;;;;;4902876;29;20107;-70
2021/01/14 05:14:25;;;;;;;5.57;3.55;;;2.60;99.90;;;;;;4906442;29;20489;-72
2021/01/14 05:16:51;;;;;;;6.35;3.67;;;2.50;99.90;;;;;;4906319;29;20043;-72
2021/01/14 05:19:17;;;;;;;5.07;4.25;;;2.40;99.90;;;;;;4908951;29;20087;-72
2021/01/14 05:21:44;;;;;;;7.50;3.78;;;2.40;99.90;;;;;;4902139;29;20477;-70
2021/01/14 05:24:13;;;;;;;6.82;3.95;;;2.40;99.90;;;;;;4889151;29;20032;-72
2021/01/14 05:26:39;;;;;;;3.88;3.08;;;2.40;99.90;;;;;;4899440;29;20035;-72
2021/01/14 05:29:16;;;;;;;6.47;3.80;;;2.40;99.90;;;;;;4902459;29;20083;-71
2021/01/14 05:31:44;;;;;;;6.93;3.80;;;2.40;99.90;;;;;;4890881;29;20087;-71
2021/01/14 05:34:10;;;;;;;9.70;4.28;;;2.30;99.90;;;;;;4891957;29;20035;-72
2021/01/14 05:36:52;;;;;;;4.85;4.32;;;2.40;99.90;;;;;;4902964;29;20392;-72
2021/01/14 05:39:18;;;;;;;4.80;4.22;;;2.40;99.90;;;;;;4887240;29;20138;-72
2021/01/14 05:41:46;;;;;;;6.07;4.18;;;2.50;99.90;;;;;;4907510;29;20035;-70
2021/01/14 05:44:11;;;;;;;4.72;4.20;;;2.50;99.90;;;;;;4904254;29;20037;-70
2021/01/14 05:46:37;;;;;;;7.78;5.07;;;2.50;99.90;;;;;;4892550;29;20528;-71
2021/01/14 05:49:04;;;;;;;8.27;5.25;;;2.60;99.90;;;;;;4892008;29;20028;-70
2021/01/14 05:51:32;;;;;;;5.47;3.80;;;2.60;99.90;;;;;;4917773;29;20039;-71
2021/01/14 05:54:06;;;;;;;4.97;4.47;;;2.60;99.90;;;;;;4900835;29;20033;-71
2021/01/14 05:56:41;;;;;;;8.15;4.32;;;2.70;99.90;;;;;;4901863;29;20056;-72
2021/01/14 05:59:09;;;;;;;6.60;3.88;;;2.60;99.90;;;;;;4911270;29;20071;-72
2021/01/14 06:01:35;;;;;;;7.35;3.88;;;2.50;99.90;;;;;;4902947;29;20107;-71
2021/01/14 06:04:21;;;;;;;7.22;5.10;;;2.50;99.90;;;;;;4902935;29;20029;-72
2021/01/14 06:06:48;;;;;;;7.32;4.82;;;2.50;99.90;;;;;;4887728;29;20052;-70
2021/01/14 06:09:17;;;;;;;8.45;6.22;;;2.50;99.90;;;;;;4873511;29;20557;-71
2021/01/14 06:11:43;;;;;;;5.80;5.00;;;2.40;99.90;;;;;;4899541;29;20462;-71
2021/01/14 06:14:29;;;;;;;9.18;5.32;;;2.40;99.90;;;;;;4882746;29;20025;-71
2021/01/14 06:17:00;;;;;;;6.35;4.65;;;2.40;99.90;;;;;;4890531;29;20040;-70
2021/01/14 06:19:29;;;;;;;7.13;5.68;;;2.50;99.90;;;;;;4892520;29;20028;-71
2021/01/14 06:21:58;;;;;;;7.55;5.38;;;2.40;99.90;;;;;;4891955;29;20036;-71
2021/01/14 06:24:26;;;;;;;6.53;5.85;;;2.50;99.90;;;;;;4891290;29;20032;-71
2021/01/14 06:27:18;;;;;;;6.00;5.35;;;2.50;99.90;;;;;;4908062;29;20084;-70
2021/01/14 06:29:43;;;;;;;7.03;5.75;;;2.50;99.90;;;;;;4894611;29;20040;-71
2021/01/14 06:32:16;;;;;;;7.93;6.05;;;2.50;99.90;;;;;;4896631;29;20037;-71
2021/01/14 06:34:49;;;;;;;6.70;5.95;;;2.50;99.90;;;;;;4899912;29;20025;-71
2021/01/14 06:37:18;;;;;;;7.47;5.82;;;2.60;99.90;;;;;;4901510;29;20100;-73
2021/01/14 06:39:44;;;;;;;12.07;6.28;;;2.60;99.90;;;;;;4898810;29;20055;-72
2021/01/14 06:42:20;;;;;;;6.88;5.38;;;2.60;99.90;;;;;;4900190;29;20020;-72
2021/01/14 06:45:10;;;;;;;8.27;5.60;;;2.50;99.90;;;;;;4881732;29;20028;-71
2021/01/14 06:47:39;;;;;;;7.78;5.90;;;2.50;99.90;;;;;;4884227;29;20028;-72
2021/01/14 06:50:24;;;;;;;6.60;5.90;;;2.50;99.90;;;;;;4887821;29;20029;-71
2021/01/14 06:52:50;;;;;;;6.25;5.30;;;2.50;99.90;;;;;;4896658;29;20103;-72
2021/01/14 06:55:18;;;;;;;7.82;5.43;;;2.50;99.90;;;;;;4897491;29;21974;-71
2021/01/14 06:58:05;;;;;;;7.13;6.00;;;2.50;99.90;;;;;;4885654;29;20024;-71
2021/01/14 07:00:32;;;;;;;6.90;6.20;;;2.50;99.90;;;;;;4900962;29;20037;-72
2021/01/14 07:03:10;;;;;;;7.78;6.47;;;2.50;99.90;;;;;;4898631;29;20548;-72
2021/01/14 07:05:40;;;;;;;7.03;6.18;;;2.50;99.90;;;;;;4900354;29;20059;-71
2021/01/14 07:08:35;;;;;;;6.53;5.90;;;2.50;99.90;;;;;;4896984;29;20055;-71
2021/01/14 07:11:04;;;;;;;6.72;5.68;;;2.50;99.90;;;;;;4884691;29;20118;-72
2021/01/14 07:13:32;;;;;;;5.95;5.35;;;2.50;99.90;;;;;;4901639;29;20048;-72
2021/01/14 07:15:59;;;;;;;7.13;6.40;;;2.50;99.90;;;;;;4904143;29;20024;-70
2021/01/14 07:18:28;;;;;;;8.02;6.32;;;2.40;99.90;;;;;;4893936;29;20036;-72
2021/01/14 07:20:57;;;;;;;6.93;6.32;;;2.50;99.90;;;;;;4913781;29;20024;-72
2021/01/14 07:23:25;;;;;;;9.07;6.82;;;2.40;99.90;;;;;;4909523;29;20036;-70
2021/01/14 07:25:52;;;;;;;10.38;7.18;;;2.40;99.90;;;;;;4902977;29;20283;-70
2021/01/14 07:28:18;;;;;;;7.50;6.70;;;2.40;99.90;;;;;;4910206;29;20087;-71
2021/01/14 07:30:44;;;;;;;9.07;6.88;;;2.40;99.90;;;;;;4903306;29;20548;-72
2021/01/14 07:33:10;;;;;;;9.15;7.32;;;2.50;99.90;;;;;;4894668;29;20041;-71
2021/01/14 07:35:44;;;;;;;8.40;6.97;;;2.50;99.90;;;;;;4893957;29;20073;-71
2021/01/14 07:38:17;;;;;;;7.63;6.80;;;2.50;99.90;;;;;;4896294;29;20033;-71
2021/01/14 07:40:44;;;;;;;11.13;6.93;;;2.50;99.90;;;;;;4900630;29;20035;-71
2021/01/14 07:43:12;;;;;;;6.90;6.22;;;2.50;99.90;;;;;;4903999;29;20035;-71
2021/01/14 07:45:38;;;;;;;7.55;6.72;;;2.50;99.90;;;;;;4909148;29;20110;-71
2021/01/14 07:48:23;;;;;;;7.85;6.63;;;2.60;99.90;;;;;;4921363;29;20031;-71
2021/01/14 07:50:57;;;;;;;7.25;6.53;;;2.60;99.90;;;;;;4901973;29;20036;-72
2021/01/14 07:53:24;;;;;;;7.78;6.97;;;2.60;99.90;;;;;;4931246;29;20036;-71
2021/01/14 07:55:50;;;;;;;7.28;6.53;;;2.60;99.90;;;;;;4917472;29;20503;-73
2021/01/14 07:58:20;;;;;;;9.02;6.93;;;2.60;99.90;;;;;;4894217;29;20064;-70
2021/01/14 08:01:08;;;;;;;7.45;6.85;;;2.60;99.90;;;;;;4911808;29;20031;-71
2021/01/14 08:03:34;;;;;;;8.00;7.20;;;2.60;99.90;;;;;;4891935;29;20036;-71
2021/01/14 08:06:35;;;;;;;7.57;6.90;;;2.60;99.90;;;;;;4903181;29;20024;-71
2021/01/14 08:09:11;;;;;;;8.05;7.00;;;2.60;99.90;;;;;;4901254;29;20534;-71
2021/01/14 08:11:43;;;;;;;9.95;7.22;;;2.60;99.90;;;;;;4886991;29;20466;-70
2021/01/14 08:14:16;;;;;;;9.23;7.47;;;2.60;99.90;;;;;;4878043;29;20123;-71
2021/01/14 08:16:55;;;;;;;10.82;6.80;;;2.70;99.90;;;;;;4888241;29;20093;-70
2021/01/14 08:19:36;;;;;;;13.68;7.35;;;2.70;99.90;;;;;;4902622;29;20035;-71
2021/01/14 08:22:07;;;;;;;7.57;6.53;;;2.60;99.90;;;;;;4911757;29;20055;-74
2021/01/14 08:24:46;;;;;;;8.07;7.28;;;2.60;99.90;;;;;;4910805;29;20051;-71
2021/01/14 08:27:35;;;;;;;10.45;8.30;;;2.60;99.90;;;;;;4908923;29;20563;-71
2021/01/14 08:30:07;;;;;;;9.32;7.18;;;2.60;99.90;;;;;;4896028;29;20040;-70
2021/01/14 08:32:37;;;;;;;8.82;7.25;;;2.60;99.90;;;;;;4889284;29;20036;-71
2021/01/14 08:35:05;;;;;;;8.23;6.95;;;2.50;99.90;;;;;;4904476;29;20017;-71
2021/01/14 08:37:37;;;;;;;11.18;7.78;;;2.50;99.90;;;;;;4900037;29;20074;-70
2021/01/14 08:40:13;;;;;;;13.07;7.05;;;2.50;99.90;;;;;;4884831;29;20068;-71
2021/01/14 08:42:40;;;;;;;11.15;6.72;;;2.60;99.90;;;;;;4879836;29;20033;-70
2021/01/14 08:45:15;;;;;;;9.32;6.82;;;2.60;99.90;;;;;;4901792;29;20084;-70
2021/01/14 08:47:55;;;;;;;6.90;6.28;;;2.60;99.90;;;;;;4897906;29;20039;-70
2021/01/14 08:50:35;;;;;;;8.30;6.18;;;2.60;99.90;;;;;;4920228;29;20028;-70
2021/01/14 08:53:19;;;;;;;7.63;6.65;;;2.60;99.90;;;;;;4902070;29;20036;-70
2021/01/14 08:55:57;;;;;;;11.73;7.03;;;2.60;99.90;;;;;;4884357;29;20032;-72
2021/01/14 08:58:44;;;;;;;7.80;6.18;;;2.70;99.90;;;;;;4890151;29;20029;-71
2021/01/14 09:01:18;;;;;;;10.23;7.15;;;2.60;99.90;;;;;;4905993;29;20031;-71
2021/01/14 09:03:47;;;;;;;13.25;7.07;;;2.60;99.90;;;;;;4919448;29;20085;-71
2021/01/14 09:06:26;;;;;;;8.32;7.47;;;2.60;99.90;;;;;;4932591;29;20028;-70
2021/01/14 09:08:53;;;;;;;7.72;6.97;;;2.60;99.90;;;;;;4916582;29;20029;-70
2021/01/14 09:11:23;;;;;;;14.45;8.23;;;2.50;99.90;;;;;;4905678;29;20032;-70
2021/01/14 09:14:03;;;;;;;11.95;8.40;;;2.60;99.90;;;;;;4917511;29;20055;-70
2021/01/14 09:16:29;;;;;;;9.13;6.80;;;2.70;99.90;;;;;;4888358;29;20032;-72
2021/01/14 09:18:54;;;;;;;10.88;6.45;;;2.60;99.90;;;;;;4920466;29;20064;-71
2021/01/14 09:21:20;;;;;;;8.13;7.32;;;2.60;99.90;;;;;;4916965;29;20031;-72
2021/01/14 09:23:45;;;;;;;10.85;7.18;;;2.70;99.90;;;;;;4919900;29;20029;-72
2021/01/14 09:26:13;;;;;;;7.78;6.85;;;2.70;99.90;;;;;;4933791;29;20063;-70
2021/01/14 09:28:40;;;;;;;10.82;7.57;;;2.60;99.90;;;;;;4911754;29;20063;-70
2021/01/14 09:31:07;;;;;;;14.57;6.97;;;2.60;99.90;;;;;;4930313;29;20070;-70
2021/01/14 09:33:40;;;;;;;10.25;7.53;;;2.60;99.90;;;;;;4921281;29;20037;-71
2021/01/14 09:36:14;;;;;;;9.48;8.25;;;2.70;99.90;;;;;;4935065;29;20064;-71
2021/01/14 09:38:43;;;;;;;8.90;7.85;;;2.70;99.90;;;;;;4911259;29;20166;-71
2021/01/14 09:41:09;;;;;;;10.90;7.82;;;2.80;99.90;;;;;;4925156;29;20067;-70
2021/01/14 09:43:39;;;;;;;8.93;7.50;;;2.90;99.90;;;;;;4923506;29;20052;-71
2021/01/14 09:46:09;;;;;;;19.60;7.50;;;2.80;99.90;;;;;;4911384;29;20051;-70
2021/01/14 09:48:34;;;;;;;12.23;7.35;;;2.80;99.90;;;;;;4923913;29;20053;-72
2021/01/14 09:51:07;;;;;;;8.07;7.28;;;2.90;99.90;;;;;;4924712;29;20031;-71
2021/01/14 09:53:33;;;;;;;9.15;8.07;;;2.90;99.90;;;;;;4933019;29;20088;-71
2021/01/14 09:56:02;;;;;;;10.40;8.80;;;2.80;99.90;;;;;;4923772;29;20037;-71
2021/01/14 09:58:30;;;;;;;10.07;8.85;;;2.90;99.90;;;;;;4930278;29;20032;-70
2021/01/14 10:00:58;;;;;;;9.38;8.10;;;2.90;99.90;;;;;;4920943;29;20088;-71
2021/01/14 10:03:25;;;;;;;9.88;7.90;;;2.80;99.90;;;;;;4938423;29;20024;-71
2021/01/14 10:05:57;;;;;;;10.02;8.30;;;2.70;99.90;;;;;;4929095;29;20017;-71
2021/01/14 10:08:24;;;;;;;14.07;7.82;;;2.80;99.90;;;;;;4935014;29;20024;-70
2021/01/14 10:10:49;;;;;;;7.93;7.13;;;2.80;99.90;;;;;;4927410;29;20008;-71
2021/01/14 10:13:15;;;;;;;9.80;8.48;;;2.80;99.90;;;;;;4918746;29;20071;-70
2021/01/14 10:15:42;;;;;;;9.07;8.18;;;2.80;99.90;;;;;;4942263;29;20111;-71
2021/01/14 10:18:25;;;;;;;9.20;7.78;;;2.90;99.90;;;;;;4927129;29;20047;-71
2021/01/14 10:21:01;;;;;;;9.88;8.10;;;2.90;99.90;;;;;;4928480;29;20005;-72
2021/01/14 10:23:27;;;;;;;8.40;6.93;;;2.90;99.90;;;;;;4930972;29;20048;-71
2021/01/14 10:25:54;;;;;;;7.20;6.47;;;3.00;99.90;;;;;;4915575;29;20047;-71
2021/01/14 10:28:21;;;;;;;8.75;6.20;;;3.00;99.90;;;;;;4919095;29;20033;-70
2021/01/14 10:30:47;;;;;;;6.90;6.20;;;3.00;99.90;;;;;;4923642;29;20027;-70
2021/01/14 10:33:12;;;;;;;8.05;6.00;;;2.90;99.90;;;;;;4922320;29;20484;-71
2021/01/14 10:35:38;;;;;;;8.15;6.32;;;2.80;99.90;;;;;;4921477;29;20044;-71
2021/01/14 10:38:10;;;;;;;8.77;6.70;;;2.80;99.90;;;;;;4921258;29;20033;-72
2021/01/14 10:40:45;;;;;;;9.02;5.97;;;2.90;99.90;;;;;;4909782;29;20088;-70
2021/01/14 10:43:14;;;;;;;8.52;6.25;;;2.80;99.90;;;;;;4925581;29;20044;-70
2021/01/14 10:45:41;;;;;;;8.68;6.75;;;2.70;99.90;;;;;;4922586;29;20016;-72
2021/01/14 10:48:17;;;;;;;7.35;6.63;;;2.70;99.90;;;;;;4914190;29;20057;-70
2021/01/14 10:50:54;;;;;;;11.70;7.45;;;2.80;99.90;;;;;;4912257;29;20072;-70
2021/01/14 10:53:28;;;;;;;6.88;6.15;;;2.80;99.90;;;;;;4918342;29;20021;-71
2021/01/14 10:56:11;;;;;;;8.43;6.22;;;3.00;99.90;;;;;;4894579;29;20041;-71
2021/01/14 10:58:39;;;;;;;10.88;6.30;;;3.00;99.90;;;;;;4933415;29;20083;-71
2021/01/14 11:01:17;;;;;;;10.10;6.65;;;3.00;99.90;;;;;;4920570;29;20035;-73
2021/01/14 11:03:43;;;;;;;8.73;6.65;;;3.10;99.90;;;;;;4923849;29;20008;-71
2021/01/14 11:06:09;;;;;;;7.25;6.28;;;3.00;99.90;;;;;;4897416;29;20073;-72
2021/01/14 11:08:46;;;;;;;12.95;8.00;;;3.10;99.90;;;;;;4898314;29;20028;-73
2021/01/14 11:11:14;;;;;;;9.75;6.93;;;2.80;99.90;;;;;;4905399;29;20044;-72
2021/01/14 11:13:46;;;;;;;10.23;7.43;;;2.90;99.90;;;;;;4908474;29;20370;-71
2021/01/14 11:16:13;;;;;;;7.93;6.85;;;2.90;99.90;;;;;;4908954;29;20398;-70
2021/01/14 11:18:41;;;;;;;8.23;6.28;;;2.90;99.90;;;;;;4902423;29;20400;-71
2021/01/14 11:21:07;;;;;;;8.65;6.47;;;2.70;99.90;;;;;;4906120;29;20115;-71
2021/01/14 11:23:33;;;;;;;7.60;6.80;;;2.70;99.90;;;;;;4918856;29;20061;-72
2021/01/14 11:26:02;;;;;;;10.40;6.80;;;2.90;99.90;;;;;;4896377;29;20055;-72
2021/01/14 11:28:31;;;;;;;6.78;6.07;;;2.90;99.90;;;;;;4921364;29;20032;-71
2021/01/14 11:30:57;;;;;;;8.63;6.70;;;3.00;99.90;;;;;;4900031;29;20461;-71
2021/01/14 11:33:23;;;;;;;7.78;6.53;;;3.00;99.90;;;;;;4893531;29;20088;-72
2021/01/14 11:35:48;;;;;;;8.02;5.95;;;3.00;99.90;;;;;;4910225;29;20025;-72
2021/01/14 11:38:14;;;;;;;8.02;5.43;;;3.10;99.90;;;;;;4900471;29;20470;-71
2021/01/14 11:40:39;;;;;;;13.30;5.97;;;3.00;99.90;;;;;;4923427;29;20092;-73
2021/01/14 11:43:05;;;;;;;6.75;5.95;;;3.00;99.90;;;;;;4899140;29;20027;-71
2021/01/14 11:45:31;;;;;;;8.35;6.10;;;3.10;83.70;;;;;;4900941;29;20043;-72
2021/01/14 11:47:56;;;;;;;10.18;6.18;;;3.00;92.10;;;;;;4919387;29;20489;-72
2021/01/14 11:50:22;;;;;;;8.20;5.80;;;3.00;89.30;;;;;;4901925;29;20080;-72
2021/01/14 11:52:48;;;;;;;8.52;5.57;;;3.00;95.60;;;;;;4910590;29;20034;-71
2021/01/14 11:55:14;;;;;;;8.02;6.15;;;2.90;92.80;;;;;;4895948;29;20093;-73
2021/01/14 11:57:40;;;;;;;6.88;5.63;;;2.80;99.90;;;;;;4915188;29;20043;-71
2021/01/14 12:00:09;;;;;;;8.52;5.38;;;3.00;94.90;;;;;;4922469;29;20032;-71
2021/01/14 12:02:35;;;;;;;10.25;5.40;;;3.10;87.70;;;;;;4911506;29;20039;-71
2021/01/14 12:05:00;;;;;;;8.80;5.63;;;3.10;94.30;;;;;;4927515;29;20029;-71
2021/01/14 12:07:26;;;;;;;6.13;5.10;;;3.40;58.00;;;;;;4927091;29;20093;-71
2021/01/14 12:09:51;;;;;;;7.13;5.05;;;3.40;1.00;;;;;;4921588;29;20037;-71
2021/01/14 12:12:17;;;;;;;6.20;4.78;;;3.30;1.00;;;;;;4933063;29;20277;-72
2021/01/14 12:14:43;;;;;;;5.55;4.45;;;3.30;1.00;;;;;;4921562;29;20057;-72
2021/01/14 12:17:08;;;;;;;8.38;5.22;;;3.60;1.00;;;;;;4935137;29;20035;-71
2021/01/14 12:19:34;;;;;;;13.57;6.90;;;3.70;1.00;;;;;;4920674;29;20033;-70
2021/01/14 12:22:09;;;;;;;14.38;6.32;;;3.60;1.00;;;;;;4920448;29;20013;-70
2021/01/14 12:24:34;;;;;;;9.30;4.97;;;4.00;99.90;;;;;;4920758;29;20041;-71
2021/01/14 12:27:00;;;;;;;6.25;4.35;;;4.20;99.90;;;;;;4919880;29;20049;-71
2021/01/14 12:29:26;;;;;;;5.15;4.20;;;3.80;1.00;;;;;;4922733;29;20024;-71
2021/01/14 12:31:52;;;;;;;7.95;5.00;;;3.60;1.00;;;;;;4921437;29;20073;-71
2021/01/14 12:34:18;;;;;;;9.82;5.50;;;3.60;1.00;;;;;;4919647;29;20055;-72
2021/01/14 12:36:45;;;;;;;6.70;5.72;;;3.60;1.00;;;;;;4927861;29;20035;-71
2021/01/14 12:39:11;;;;;;;5.93;4.65;;;3.60;1.00;;;;;;4925143;29;20020;-70
2021/01/14 12:41:37;;;;;;;7.57;5.40;;;3.90;1.00;;;;;;4927278;29;20051;-70
2021/01/14 12:44:03;;;;;;;7.03;5.28;;;4.10;1.00;;;;;;4924291;29;20027;-70
2021/01/14 12:46:38;;;;;;;6.70;5.63;;;4.10;1.00;;;;;;4929854;29;20089;-70
2021/01/14 12:49:06;;;;;;;9.80;5.50;;;4.00;1.00;;;;;;4932192;29;20076;-70
2021/01/14 12:51:32;;;;;;;11.85;5.50;;;3.90;1.00;;;;;;4903092;29;20074;-71
2021/01/14 12:53:58;;;;;;;11.23;5.80;;;3.80;1.00;;;;;;4923603;29;20027;-69
2021/01/14 12:56:24;;;;;;;8.73;5.82;;;4.00;1.00;;;;;;4913037;29;20033;-70
2021/01/14 12:58:50;;;;;;;6.72;5.65;;;4.00;1.00;;;;;;4921328;29;20028;-72
2021/01/14 13:01:15;;;;;;;12.50;5.68;;;3.80;1.00;;;;;;4935047;29;20159;-71
2021/01/14 13:03:41;;;;;;;11.57;5.20;;;3.70;1.00;;;;;;4920979;29;20100;-70
2021/01/14 13:06:07;;;;;;;8.15;4.88;;;3.60;1.00;;;;;;4930165;29;20039;-71
2021/01/14 13:08:32;;;;;;;7.20;4.82;;;3.60;1.00;;;;;;4911859;29;20037;-71